sensor_id;sensor_type;location;lat;lon;timestamp;temperature;humidity
71098;SHT35;58754;47.622;-2.986;2023-04-03T00:00:23;17.04;57.75
71098;SHT35;58754;47.622;-2.986;2023-04-03T00:02:49;17.04;57.72
71098;SHT35;58754;47.622;-2.986;2023-04-03T00:05:15;17.04;57.75
71098;SHT35;58754;47.622;-2.986;2023-04-03T00:07:40;17.03;57.69
71098;SHT35;58754;47.622;-2.986;2023-04-03T00:10:07;17.03;57.73
71098;SHT35;58754;47.622;-2.986;2023-04-03T00:12:33;17.03;57.73
71098;SHT35;58754;47.622;-2.986;2023-04-03T00:14:58;17.03;57.69
71098;SHT35;58754;47.622;-2.986;2023-04-03T00:17:25;17.02;57.64
71098;SHT35;58754;47.622;-2.986;2023-04-03T00:19:50;17.03;57.64
71098;SHT35;58754;47.622;-2.986;2023-04-03T00:22:16;17.02;57.67
71098;SHT35;58754;47.622;-2.986;2023-04-03T00:24:42;17.03;57.68
71098;SHT35;58754;47.622;-2.986;2023-04-03T00:27:07;17.02;57.68
71098;SHT35;58754;47.622;-2.986;2023-04-03T00:29:33;17.02;57.68
71098;SHT35;58754;47.622;-2.986;2023-04-03T00:31:59;17.02;57.62
71098;SHT35;58754;47.622;-2.986;2023-04-03T00:34:25;17.03;57.63
71098;SHT35;58754;47.622;-2.986;2023-04-03T00:36:50;17.02;57.68
71098;SHT35;58754;47.622;-2.986;2023-04-03T00:39:16;17.02;57.62
71098;SHT35;58754;47.622;-2.986;2023-04-03T00:41:42;17.02;57.68
71098;SHT35;58754;47.622;-2.986;2023-04-03T00:47:07;17.02;57.62
71098;SHT35;58754;47.622;-2.986;2023-04-03T00:49:35;17.03;57.61
71098;SHT35;58754;47.622;-2.986;2023-04-03T00:52:02;17.00;57.64
71098;SHT35;58754;47.622;-2.986;2023-04-03T00:54:29;16.99;57.64
71098;SHT35;58754;47.622;-2.986;2023-04-03T00:56:57;17.00;57.60
71098;SHT35;58754;47.622;-2.986;2023-04-03T00:59:29;16.99;57.64
71098;SHT35;58754;47.622;-2.986;2023-04-03T01:01:57;17.00;57.66
71098;SHT35;58754;47.622;-2.986;2023-04-03T01:06:56;17.00;57.64
71098;SHT35;58754;47.622;-2.986;2023-04-03T01:09:23;16.99;57.60
71098;SHT35;58754;47.622;-2.986;2023-04-03T01:11:48;16.97;57.59
71098;SHT35;58754;47.622;-2.986;2023-04-03T01:14:14;16.99;57.61
71098;SHT35;58754;47.622;-2.986;2023-04-03T01:16:40;16.99;57.58
71098;SHT35;58754;47.622;-2.986;2023-04-03T01:19:15;16.96;57.69
71098;SHT35;58754;47.622;-2.986;2023-04-03T01:22:10;16.96;57.65
71098;SHT35;58754;47.622;-2.986;2023-04-03T01:24:42;16.97;57.65
71098;SHT35;58754;47.622;-2.986;2023-04-03T01:27:09;16.97;57.59
71098;SHT35;58754;47.622;-2.986;2023-04-03T01:29:36;16.99;57.62
71098;SHT35;58754;47.622;-2.986;2023-04-03T01:32:03;16.96;57.60
71098;SHT35;58754;47.622;-2.986;2023-04-03T01:34:29;16.96;57.59
71098;SHT35;58754;47.622;-2.986;2023-04-03T01:36:56;16.96;57.58
71098;SHT35;58754;47.622;-2.986;2023-04-03T01:39:21;16.94;57.57
71098;SHT35;58754;47.622;-2.986;2023-04-03T01:41:48;16.96;57.55
71098;SHT35;58754;47.622;-2.986;2023-04-03T01:44:14;16.96;57.58
71098;SHT35;58754;47.622;-2.986;2023-04-03T01:46:40;16.96;57.53
71098;SHT35;58754;47.622;-2.986;2023-04-03T01:49:07;16.96;57.59
71098;SHT35;58754;47.622;-2.986;2023-04-03T01:51:33;16.96;57.60
71098;SHT35;58754;47.622;-2.986;2023-04-03T01:53:59;16.94;57.59
71098;SHT35;58754;47.622;-2.986;2023-04-03T01:56:25;16.96;57.54
71098;SHT35;58754;47.622;-2.986;2023-04-03T01:58:52;16.94;57.54
71098;SHT35;58754;47.622;-2.986;2023-04-03T02:01:17;16.93;57.53
71098;SHT35;58754;47.622;-2.986;2023-04-03T02:03:43;16.93;57.53
71098;SHT35;58754;47.622;-2.986;2023-04-03T02:06:09;16.93;57.50
71098;SHT35;58754;47.622;-2.986;2023-04-03T02:08:35;16.93;57.54
71098;SHT35;58754;47.622;-2.986;2023-04-03T02:11:01;16.92;57.56
71098;SHT35;58754;47.622;-2.986;2023-04-03T02:13:26;16.92;57.51
71098;SHT35;58754;47.622;-2.986;2023-04-03T02:15:52;16.93;57.53
71098;SHT35;58754;47.622;-2.986;2023-04-03T02:18:18;16.92;57.50
71098;SHT35;58754;47.622;-2.986;2023-04-03T02:20:44;16.92;57.50
71098;SHT35;58754;47.622;-2.986;2023-04-03T02:23:10;16.90;57.56
71098;SHT35;58754;47.622;-2.986;2023-04-03T02:25:35;16.89;57.53
71098;SHT35;58754;47.622;-2.986;2023-04-03T02:28:01;16.89;57.47
71098;SHT35;58754;47.622;-2.986;2023-04-03T02:30:27;16.90;57.51
71098;SHT35;58754;47.622;-2.986;2023-04-03T02:33:12;16.86;57.50
71098;SHT35;58754;47.622;-2.986;2023-04-03T02:35:38;16.87;57.51
71098;SHT35;58754;47.622;-2.986;2023-04-03T02:38:04;16.87;57.47
71098;SHT35;58754;47.622;-2.986;2023-04-03T02:40:30;16.89;57.44
71098;SHT35;58754;47.622;-2.986;2023-04-03T02:42:56;16.90;57.52
71098;SHT35;58754;47.622;-2.986;2023-04-03T02:45:21;16.86;57.51
71098;SHT35;58754;47.622;-2.986;2023-04-03T02:47:47;16.85;57.50
71098;SHT35;58754;47.622;-2.986;2023-04-03T02:50:13;16.86;57.46
71098;SHT35;58754;47.622;-2.986;2023-04-03T02:52:38;16.83;57.44
71098;SHT35;58754;47.622;-2.986;2023-04-03T02:55:04;16.87;57.42
71098;SHT35;58754;47.622;-2.986;2023-04-03T02:57:30;16.86;57.40
71098;SHT35;58754;47.622;-2.986;2023-04-03T02:59:56;16.85;57.41
71098;SHT35;58754;47.622;-2.986;2023-04-03T03:02:21;16.87;57.37
71098;SHT35;58754;47.622;-2.986;2023-04-03T03:04:47;16.83;57.43
71098;SHT35;58754;47.622;-2.986;2023-04-03T03:07:13;16.83;57.41
71098;SHT35;58754;47.622;-2.986;2023-04-03T03:09:38;16.82;57.42
71098;SHT35;58754;47.622;-2.986;2023-04-03T03:12:05;16.83;57.39
71098;SHT35;58754;47.622;-2.986;2023-04-03T03:14:30;16.83;57.40
71098;SHT35;58754;47.622;-2.986;2023-04-03T03:16:56;16.80;57.45
71098;SHT35;58754;47.622;-2.986;2023-04-03T03:19:21;16.82;57.36
71098;SHT35;58754;47.622;-2.986;2023-04-03T03:21:47;16.83;57.37
71098;SHT35;58754;47.622;-2.986;2023-04-03T03:24:13;16.82;57.37
71098;SHT35;58754;47.622;-2.986;2023-04-03T03:26:39;16.82;57.41
71098;SHT35;58754;47.622;-2.986;2023-04-03T03:29:04;16.85;57.36
71098;SHT35;58754;47.622;-2.986;2023-04-03T03:31:30;16.80;57.36
71098;SHT35;58754;47.622;-2.986;2023-04-03T03:33:56;16.80;57.34
71098;SHT35;58754;47.622;-2.986;2023-04-03T03:36:22;16.82;57.35
71098;SHT35;58754;47.622;-2.986;2023-04-03T03:38:47;16.82;57.32
71098;SHT35;58754;47.622;-2.986;2023-04-03T03:41:13;16.79;57.31
71098;SHT35;58754;47.622;-2.986;2023-04-03T03:43:39;16.83;57.34
71098;SHT35;58754;47.622;-2.986;2023-04-03T03:46:04;16.80;57.32
71098;SHT35;58754;47.622;-2.986;2023-04-03T03:48:30;16.79;57.28
71098;SHT35;58754;47.622;-2.986;2023-04-03T03:50:56;16.80;57.31
71098;SHT35;58754;47.622;-2.986;2023-04-03T03:53:21;16.79;57.25
71098;SHT35;58754;47.622;-2.986;2023-04-03T03:55:47;16.79;57.24
71098;SHT35;58754;47.622;-2.986;2023-04-03T03:58:13;16.77;57.26
71098;SHT35;58754;47.622;-2.986;2023-04-03T04:00:38;16.80;57.31
71098;SHT35;58754;47.622;-2.986;2023-04-03T04:03:04;16.77;57.26
71098;SHT35;58754;47.622;-2.986;2023-04-03T04:05:30;16.80;57.26
71098;SHT35;58754;47.622;-2.986;2023-04-03T04:07:56;16.79;57.25
71098;SHT35;58754;47.622;-2.986;2023-04-03T04:10:22;16.79;57.25
71098;SHT35;58754;47.622;-2.986;2023-04-03T04:12:47;16.77;57.26
71098;SHT35;58754;47.622;-2.986;2023-04-03T04:15:14;16.77;57.25
71098;SHT35;58754;47.622;-2.986;2023-04-03T04:17:40;16.75;57.29
71098;SHT35;58754;47.622;-2.986;2023-04-03T04:20:06;16.77;57.27
71098;SHT35;58754;47.622;-2.986;2023-04-03T04:22:32;16.79;57.26
71098;SHT35;58754;47.622;-2.986;2023-04-03T04:24:57;16.76;57.26
71098;SHT35;58754;47.622;-2.986;2023-04-03T04:27:23;16.76;57.20
71098;SHT35;58754;47.622;-2.986;2023-04-03T04:29:48;16.73;57.24
71098;SHT35;58754;47.622;-2.986;2023-04-03T04:32:14;16.76;57.26
71098;SHT35;58754;47.622;-2.986;2023-04-03T04:34:40;16.75;57.24
71098;SHT35;58754;47.622;-2.986;2023-04-03T04:37:05;16.75;57.23
71098;SHT35;58754;47.622;-2.986;2023-04-03T04:39:31;16.73;57.24
71098;SHT35;58754;47.622;-2.986;2023-04-03T04:41:57;16.73;57.22
71098;SHT35;58754;47.622;-2.986;2023-04-03T04:44:22;16.72;57.21
71098;SHT35;58754;47.622;-2.986;2023-04-03T04:46:48;16.75;57.22
71098;SHT35;58754;47.622;-2.986;2023-04-03T04:49:14;16.73;57.20
71098;SHT35;58754;47.622;-2.986;2023-04-03T04:51:39;16.72;57.20
71098;SHT35;58754;47.622;-2.986;2023-04-03T04:54:05;16.73;57.16
71098;SHT35;58754;47.622;-2.986;2023-04-03T04:56:31;16.73;57.19
71098;SHT35;58754;47.622;-2.986;2023-04-03T04:58:57;16.73;57.19
71098;SHT35;58754;47.622;-2.986;2023-04-03T05:01:22;16.72;57.18
71098;SHT35;58754;47.622;-2.986;2023-04-03T05:03:48;16.71;57.23
71098;SHT35;58754;47.622;-2.986;2023-04-03T05:06:14;16.72;57.17
71098;SHT35;58754;47.622;-2.986;2023-04-03T05:08:39;16.72;57.18
71098;SHT35;58754;47.622;-2.986;2023-04-03T05:11:05;16.71;57.16
71098;SHT35;58754;47.622;-2.986;2023-04-03T05:13:31;16.68;57.15
71098;SHT35;58754;47.622;-2.986;2023-04-03T05:15:56;16.68;57.19
71098;SHT35;58754;47.622;-2.986;2023-04-03T05:18:22;16.69;57.19
71098;SHT35;58754;47.622;-2.986;2023-04-03T05:20:49;16.66;57.15
71098;SHT35;58754;47.622;-2.986;2023-04-03T05:23:15;16.68;57.19
71098;SHT35;58754;47.622;-2.986;2023-04-03T05:25:41;16.69;57.20
71098;SHT35;58754;47.622;-2.986;2023-04-03T05:28:09;16.66;57.18
71098;SHT35;58754;47.622;-2.986;2023-04-03T05:30:35;16.68;57.16
71098;SHT35;58754;47.622;-2.986;2023-04-03T05:33:01;16.69;57.18
71098;SHT35;58754;47.622;-2.986;2023-04-03T05:35:26;16.66;57.15
71098;SHT35;58754;47.622;-2.986;2023-04-03T05:37:52;16.64;57.17
71098;SHT35;58754;47.622;-2.986;2023-04-03T05:40:18;16.66;57.17
71098;SHT35;58754;47.622;-2.986;2023-04-03T05:42:44;16.68;57.12
71098;SHT35;58754;47.622;-2.986;2023-04-03T05:45:10;16.66;57.11
71098;SHT35;58754;47.622;-2.986;2023-04-03T05:47:36;16.65;57.14
71098;SHT35;58754;47.622;-2.986;2023-04-03T05:50:02;16.66;57.11
71098;SHT35;58754;47.622;-2.986;2023-04-03T05:52:30;16.65;57.20
71098;SHT35;58754;47.622;-2.986;2023-04-03T05:54:57;16.65;57.13
71098;SHT35;58754;47.622;-2.986;2023-04-03T05:57:23;16.64;57.14
71098;SHT35;58754;47.622;-2.986;2023-04-03T05:59:49;16.64;57.08
71098;SHT35;58754;47.622;-2.986;2023-04-03T06:02:20;16.65;57.07
71098;SHT35;58754;47.622;-2.986;2023-04-03T06:04:46;16.62;57.14
71098;SHT35;58754;47.622;-2.986;2023-04-03T06:07:21;16.62;57.16
71098;SHT35;58754;47.622;-2.986;2023-04-03T06:09:48;16.65;57.09
71098;SHT35;58754;47.622;-2.986;2023-04-03T06:12:15;16.64;57.08
71098;SHT35;58754;47.622;-2.986;2023-04-03T06:14:40;16.59;57.04
71098;SHT35;58754;47.622;-2.986;2023-04-03T06:17:06;16.62;57.08
71098;SHT35;58754;47.622;-2.986;2023-04-03T06:19:33;16.64;57.09
71098;SHT35;58754;47.622;-2.986;2023-04-03T06:21:59;16.61;57.04
71098;SHT35;58754;47.622;-2.986;2023-04-03T06:24:25;16.61;57.01
71098;SHT35;58754;47.622;-2.986;2023-04-03T06:26:52;16.59;57.03
71098;SHT35;58754;47.622;-2.986;2023-04-03T06:29:21;16.61;57.02
71098;SHT35;58754;47.622;-2.986;2023-04-03T06:31:48;16.59;57.00
71098;SHT35;58754;47.622;-2.986;2023-04-03T06:34:14;16.59;57.05
71098;SHT35;58754;47.622;-2.986;2023-04-03T06:36:41;16.58;57.06
71098;SHT35;58754;47.622;-2.986;2023-04-03T06:39:10;16.59;56.98
71098;SHT35;58754;47.622;-2.986;2023-04-03T06:41:38;16.59;57.03
71098;SHT35;58754;47.622;-2.986;2023-04-03T06:44:04;16.59;57.01
71098;SHT35;58754;47.622;-2.986;2023-04-03T06:46:29;16.58;57.03
71098;SHT35;58754;47.622;-2.986;2023-04-03T06:48:55;16.58;57.00
71098;SHT35;58754;47.622;-2.986;2023-04-03T06:51:23;16.57;56.98
71098;SHT35;58754;47.622;-2.986;2023-04-03T06:53:51;16.58;56.99
71098;SHT35;58754;47.622;-2.986;2023-04-03T06:56:18;16.57;56.94
71098;SHT35;58754;47.622;-2.986;2023-04-03T06:58:44;16.55;56.95
71098;SHT35;58754;47.622;-2.986;2023-04-03T07:01:12;16.54;56.93
71098;SHT35;58754;47.622;-2.986;2023-04-03T07:03:39;16.57;56.91
71098;SHT35;58754;47.622;-2.986;2023-04-03T07:06:06;16.57;56.95
71098;SHT35;58754;47.622;-2.986;2023-04-03T07:08:33;16.54;56.93
71098;SHT35;58754;47.622;-2.986;2023-04-03T07:10:59;16.54;57.01
71098;SHT35;58754;47.622;-2.986;2023-04-03T07:13:25;16.55;56.97
71098;SHT35;58754;47.622;-2.986;2023-04-03T07:15:51;16.52;56.96
71098;SHT35;58754;47.622;-2.986;2023-04-03T07:18:18;16.55;56.84
71098;SHT35;58754;47.622;-2.986;2023-04-03T07:20:44;16.54;56.95
71098;SHT35;58754;47.622;-2.986;2023-04-03T07:23:09;16.54;56.91
71098;SHT35;58754;47.622;-2.986;2023-04-03T07:25:36;16.55;56.94
71098;SHT35;58754;47.622;-2.986;2023-04-03T07:28:03;16.54;56.89
71098;SHT35;58754;47.622;-2.986;2023-04-03T07:30:29;16.54;56.91
71098;SHT35;58754;47.622;-2.986;2023-04-03T07:32:55;16.52;56.92
71098;SHT35;58754;47.622;-2.986;2023-04-03T07:35:20;16.54;56.90
71098;SHT35;58754;47.622;-2.986;2023-04-03T07:37:46;16.52;56.83
71098;SHT35;58754;47.622;-2.986;2023-04-03T07:40:12;16.52;56.84
71098;SHT35;58754;47.622;-2.986;2023-04-03T07:42:38;16.54;56.84
71098;SHT35;58754;47.622;-2.986;2023-04-03T07:45:04;16.52;56.87
71098;SHT35;58754;47.622;-2.986;2023-04-03T07:47:30;16.51;56.86
71098;SHT35;58754;47.622;-2.986;2023-04-03T07:49:57;16.52;56.85
71098;SHT35;58754;47.622;-2.986;2023-04-03T07:52:24;16.52;56.80
71098;SHT35;58754;47.622;-2.986;2023-04-03T07:54:50;16.48;56.84
71098;SHT35;58754;47.622;-2.986;2023-04-03T07:57:16;16.51;56.80
71098;SHT35;58754;47.622;-2.986;2023-04-03T07:59:42;16.52;56.80
71098;SHT35;58754;47.622;-2.986;2023-04-03T08:02:12;16.52;56.79
71098;SHT35;58754;47.622;-2.986;2023-04-03T08:04:38;16.48;56.79
71098;SHT35;58754;47.622;-2.986;2023-04-03T08:07:04;16.49;56.75
71098;SHT35;58754;47.622;-2.986;2023-04-03T08:09:30;16.49;56.74
71098;SHT35;58754;47.622;-2.986;2023-04-03T08:11:57;16.51;56.71
71098;SHT35;58754;47.622;-2.986;2023-04-03T08:14:23;16.48;56.75
71098;SHT35;58754;47.622;-2.986;2023-04-03T08:16:49;16.48;56.71
71098;SHT35;58754;47.622;-2.986;2023-04-03T08:19:15;16.49;56.78
71098;SHT35;58754;47.622;-2.986;2023-04-03T08:21:44;16.49;56.74
71098;SHT35;58754;47.622;-2.986;2023-04-03T08:24:11;16.51;56.73
71098;SHT35;58754;47.622;-2.986;2023-04-03T08:26:37;16.47;56.73
71098;SHT35;58754;47.622;-2.986;2023-04-03T08:29:03;16.47;56.70
71098;SHT35;58754;47.622;-2.986;2023-04-03T08:31:29;16.48;56.75
71098;SHT35;58754;47.622;-2.986;2023-04-03T08:33:56;16.48;56.70
71098;SHT35;58754;47.622;-2.986;2023-04-03T08:36:28;16.48;56.75
71098;SHT35;58754;47.622;-2.986;2023-04-03T08:38:55;16.47;56.67
71098;SHT35;58754;47.622;-2.986;2023-04-03T08:41:43;16.47;56.75
71098;SHT35;58754;47.622;-2.986;2023-04-03T08:47:22;16.45;56.75
71098;SHT35;58754;47.622;-2.986;2023-04-03T08:50:00;16.45;56.74
71098;SHT35;58754;47.622;-2.986;2023-04-03T08:55:07;16.47;56.75
71098;SHT35;58754;47.622;-2.986;2023-04-03T08:57:41;16.44;56.74
71098;SHT35;58754;47.622;-2.986;2023-04-03T09:00:22;16.45;56.63
71098;SHT35;58754;47.622;-2.986;2023-04-03T09:02:51;16.48;56.64
71098;SHT35;58754;47.622;-2.986;2023-04-03T09:05:20;16.48;56.63
71098;SHT35;58754;47.622;-2.986;2023-04-03T09:08:00;16.48;56.61
71098;SHT35;58754;47.622;-2.986;2023-04-03T09:10:28;16.45;56.62
71098;SHT35;58754;47.622;-2.986;2023-04-03T09:13:22;16.45;56.70
71098;SHT35;58754;47.622;-2.986;2023-04-03T09:15:50;16.42;56.61
71098;SHT35;58754;47.622;-2.986;2023-04-03T09:18:45;16.42;56.67
71098;SHT35;58754;47.622;-2.986;2023-04-03T09:21:21;16.44;56.68
71098;SHT35;58754;47.622;-2.986;2023-04-03T09:23:55;16.44;56.69
71098;SHT35;58754;47.622;-2.986;2023-04-03T09:26:26;16.44;56.71
71098;SHT35;58754;47.622;-2.986;2023-04-03T09:28:58;16.45;56.67
71098;SHT35;58754;47.622;-2.986;2023-04-03T09:31:42;16.40;56.72
71098;SHT35;58754;47.622;-2.986;2023-04-03T09:34:30;16.44;56.67
71098;SHT35;58754;47.622;-2.986;2023-04-03T09:36:59;16.44;56.66
71098;SHT35;58754;47.622;-2.986;2023-04-03T09:39:32;16.42;56.66
71098;SHT35;58754;47.622;-2.986;2023-04-03T09:42:16;16.42;56.67
71098;SHT35;58754;47.622;-2.986;2023-04-03T09:44:53;16.42;56.67
71098;SHT35;58754;47.622;-2.986;2023-04-03T09:47:30;16.42;56.61
71098;SHT35;58754;47.622;-2.986;2023-04-03T09:52:44;16.42;56.60
71098;SHT35;58754;47.622;-2.986;2023-04-03T09:57:41;16.41;56.71
71098;SHT35;58754;47.622;-2.986;2023-04-03T10:02:55;16.40;56.71
71098;SHT35;58754;47.622;-2.986;2023-04-03T10:05:41;16.41;56.71
71098;SHT35;58754;47.622;-2.986;2023-04-03T10:10:40;16.41;56.61
71098;SHT35;58754;47.622;-2.986;2023-04-03T10:13:13;16.40;56.62
71098;SHT35;58754;47.622;-2.986;2023-04-03T10:15:43;16.40;56.61
71098;SHT35;58754;47.622;-2.986;2023-04-03T10:18:44;16.40;56.68
71098;SHT35;58754;47.622;-2.986;2023-04-03T10:22:01;16.40;56.65
71098;SHT35;58754;47.622;-2.986;2023-04-03T10:24:11;16.40;56.61
71098;SHT35;58754;47.622;-2.986;2023-04-03T10:27:00;16.38;56.64
71098;SHT35;58754;47.622;-2.986;2023-04-03T10:34:53;16.37;56.67
71098;SHT35;58754;47.622;-2.986;2023-04-03T10:37:24;16.35;56.68
71098;SHT35;58754;47.622;-2.986;2023-04-03T10:40:13;16.37;56.71
71098;SHT35;58754;47.622;-2.986;2023-04-03T10:48:07;16.37;56.68
71098;SHT35;58754;47.622;-2.986;2023-04-03T10:50:38;16.37;56.73
71098;SHT35;58754;47.622;-2.986;2023-04-03T10:58:43;16.37;56.71
71098;SHT35;58754;47.622;-2.986;2023-04-03T11:01:18;16.35;56.67
71098;SHT35;58754;47.622;-2.986;2023-04-03T11:03:48;16.37;56.69
71098;SHT35;58754;47.622;-2.986;2023-04-03T11:06:16;16.34;56.71
71098;SHT35;58754;47.622;-2.986;2023-04-03T11:08:48;16.35;56.65
71098;SHT35;58754;47.622;-2.986;2023-04-03T11:11:24;16.37;56.64
71098;SHT35;58754;47.622;-2.986;2023-04-03T11:14:05;16.35;56.69
71098;SHT35;58754;47.622;-2.986;2023-04-03T11:16:39;16.35;56.68
71098;SHT35;58754;47.622;-2.986;2023-04-03T11:19:39;16.35;56.73
71098;SHT35;58754;47.622;-2.986;2023-04-03T11:22:18;16.35;56.77
71098;SHT35;58754;47.622;-2.986;2023-04-03T11:25:05;16.35;56.69
71098;SHT35;58754;47.622;-2.986;2023-04-03T11:27:46;16.35;56.67
71098;SHT35;58754;47.622;-2.986;2023-04-03T11:30:21;16.35;56.64
71098;SHT35;58754;47.622;-2.986;2023-04-03T11:32:53;16.32;56.68
71098;SHT35;58754;47.622;-2.986;2023-04-03T11:35:23;16.32;56.64
71098;SHT35;58754;47.622;-2.986;2023-04-03T11:37:51;16.34;56.64
71098;SHT35;58754;47.622;-2.986;2023-04-03T11:40:33;16.31;56.67
71098;SHT35;58754;47.622;-2.986;2023-04-03T11:45:33;16.34;56.61
71098;SHT35;58754;47.622;-2.986;2023-04-03T11:48:04;16.34;56.61
71098;SHT35;58754;47.622;-2.986;2023-04-03T11:53:25;16.35;56.55
71098;SHT35;58754;47.622;-2.986;2023-04-03T11:58:22;16.32;56.63
71098;SHT35;58754;47.622;-2.986;2023-04-03T12:01:03;16.34;56.62
71098;SHT35;58754;47.622;-2.986;2023-04-03T12:04:19;16.35;56.59
71098;SHT35;58754;47.622;-2.986;2023-04-03T12:08:54;16.34;56.65
71098;SHT35;58754;47.622;-2.986;2023-04-03T12:11:40;16.34;56.58
71098;SHT35;58754;47.622;-2.986;2023-04-03T12:14:14;16.31;56.60
71098;SHT35;58754;47.622;-2.986;2023-04-03T12:37:57;16.34;56.58
71098;SHT35;58754;47.622;-2.986;2023-04-03T12:46:07;16.34;56.58
71098;SHT35;58754;47.622;-2.986;2023-04-03T12:48:47;16.32;56.57
71098;SHT35;58754;47.622;-2.986;2023-04-03T12:51:18;16.32;56.57
71098;SHT35;58754;47.622;-2.986;2023-04-03T12:53:45;16.35;56.59
71098;SHT35;58754;47.622;-2.986;2023-04-03T12:56:24;16.34;56.59
71098;SHT35;58754;47.622;-2.986;2023-04-03T12:58:51;16.32;56.61
71098;SHT35;58754;47.622;-2.986;2023-04-03T13:01:21;16.35;56.55
71098;SHT35;58754;47.622;-2.986;2023-04-03T13:03:55;16.31;56.57
71098;SHT35;58754;47.622;-2.986;2023-04-03T13:08:56;16.35;56.61
71098;SHT35;58754;47.622;-2.986;2023-04-03T13:11:25;16.34;56.64
71098;SHT35;58754;47.622;-2.986;2023-04-03T13:16:24;16.35;56.61
71098;SHT35;58754;47.622;-2.986;2023-04-03T13:18:53;16.37;56.61
71098;SHT35;58754;47.622;-2.986;2023-04-03T13:21:26;16.37;56.64
71098;SHT35;58754;47.622;-2.986;2023-04-03T13:24:01;16.35;56.61
71098;SHT35;58754;47.622;-2.986;2023-04-03T13:26:30;16.35;56.62
71098;SHT35;58754;47.622;-2.986;2023-04-03T13:29:04;16.35;56.62
71098;SHT35;58754;47.622;-2.986;2023-04-03T13:31:39;16.34;56.61
71098;SHT35;58754;47.622;-2.986;2023-04-03T13:34:10;16.35;56.66
71098;SHT35;58754;47.622;-2.986;2023-04-03T13:36:43;16.37;56.64
71098;SHT35;58754;47.622;-2.986;2023-04-03T13:41:39;16.37;56.61
71098;SHT35;58754;47.622;-2.986;2023-04-03T13:46:58;16.38;56.66
71098;SHT35;58754;47.622;-2.986;2023-04-03T13:49:36;16.38;56.57
71098;SHT35;58754;47.622;-2.986;2023-04-03T13:52:33;16.38;56.61
71098;SHT35;58754;47.622;-2.986;2023-04-03T13:55:17;16.37;56.63
71098;SHT35;58754;47.622;-2.986;2023-04-03T14:00:49;16.35;56.57
71098;SHT35;58754;47.622;-2.986;2023-04-03T14:03:39;16.37;56.58
71098;SHT35;58754;47.622;-2.986;2023-04-03T14:06:06;16.40;56.62
71098;SHT35;58754;47.622;-2.986;2023-04-03T14:08:32;16.37;56.61
71098;SHT35;58754;47.622;-2.986;2023-04-03T14:10:58;16.37;56.61
71098;SHT35;58754;47.622;-2.986;2023-04-03T14:13:24;16.38;56.60
71098;SHT35;58754;47.622;-2.986;2023-04-03T14:15:50;16.40;56.59
71098;SHT35;58754;47.622;-2.986;2023-04-03T14:18:18;16.38;56.61
71098;SHT35;58754;47.622;-2.986;2023-04-03T14:20:45;16.40;56.56
71098;SHT35;58754;47.622;-2.986;2023-04-03T14:23:11;16.38;56.62
71098;SHT35;58754;47.622;-2.986;2023-04-03T14:25:37;16.37;56.61
71098;SHT35;58754;47.622;-2.986;2023-04-03T14:28:16;16.40;56.59
71098;SHT35;58754;47.622;-2.986;2023-04-03T14:30:44;16.42;56.61
71098;SHT35;58754;47.622;-2.986;2023-04-03T14:33:16;16.38;56.61
71098;SHT35;58754;47.622;-2.986;2023-04-03T14:35:43;16.40;56.61
71098;SHT35;58754;47.622;-2.986;2023-04-03T14:38:23;16.40;56.58
71098;SHT35;58754;47.622;-2.986;2023-04-03T14:40:49;16.40;56.56
71098;SHT35;58754;47.622;-2.986;2023-04-03T14:43:15;16.40;56.63
71098;SHT35;58754;47.622;-2.986;2023-04-03T14:45:41;16.42;56.60
71098;SHT35;58754;47.622;-2.986;2023-04-03T14:48:17;16.41;56.59
71098;SHT35;58754;47.622;-2.986;2023-04-03T14:50:43;16.41;56.60
71098;SHT35;58754;47.622;-2.986;2023-04-03T14:53:12;16.40;56.62
71098;SHT35;58754;47.622;-2.986;2023-04-03T14:55:42;16.44;56.65
71098;SHT35;58754;47.622;-2.986;2023-04-03T14:58:13;16.41;56.59
71098;SHT35;58754;47.622;-2.986;2023-04-03T15:00:39;16.44;56.65
71098;SHT35;58754;47.622;-2.986;2023-04-03T15:03:05;16.42;56.64
71098;SHT35;58754;47.622;-2.986;2023-04-03T15:05:30;16.44;56.61
71098;SHT35;58754;47.622;-2.986;2023-04-03T15:07:58;16.44;56.63
71098;SHT35;58754;47.622;-2.986;2023-04-03T15:10:28;16.42;56.59
71098;SHT35;58754;47.622;-2.986;2023-04-03T15:12:54;16.44;56.57
71098;SHT35;58754;47.622;-2.986;2023-04-03T15:15:22;16.44;56.58
71098;SHT35;58754;47.622;-2.986;2023-04-03T15:17:52;16.44;56.54
71098;SHT35;58754;47.622;-2.986;2023-04-03T15:20:25;16.42;56.52
71098;SHT35;58754;47.622;-2.986;2023-04-03T15:22:52;16.42;56.55
71098;SHT35;58754;47.622;-2.986;2023-04-03T15:25:17;16.42;56.49
71098;SHT35;58754;47.622;-2.986;2023-04-03T15:27:43;16.44;56.56
71098;SHT35;58754;47.622;-2.986;2023-04-03T15:30:18;16.47;56.57
71098;SHT35;58754;47.622;-2.986;2023-04-03T15:32:45;16.45;56.55
71098;SHT35;58754;47.622;-2.986;2023-04-03T15:35:11;16.45;56.55
71098;SHT35;58754;47.622;-2.986;2023-04-03T15:37:37;16.45;56.54
71098;SHT35;58754;47.622;-2.986;2023-04-03T15:40:04;16.47;56.52
71098;SHT35;58754;47.622;-2.986;2023-04-03T15:42:30;16.44;56.53
71098;SHT35;58754;47.622;-2.986;2023-04-03T15:44:56;16.42;56.55
71098;SHT35;58754;47.622;-2.986;2023-04-03T15:47:22;16.48;56.50
71098;SHT35;58754;47.622;-2.986;2023-04-03T15:49:47;16.47;56.47
71098;SHT35;58754;47.622;-2.986;2023-04-03T15:52:13;16.49;56.47
71098;SHT35;58754;47.622;-2.986;2023-04-03T15:54:39;16.48;56.46
71098;SHT35;58754;47.622;-2.986;2023-04-03T15:57:04;16.48;56.45
71098;SHT35;58754;47.622;-2.986;2023-04-03T15:59:30;16.48;56.42
71098;SHT35;58754;47.622;-2.986;2023-04-03T16:01:59;16.48;56.42
71098;SHT35;58754;47.622;-2.986;2023-04-03T16:04:26;16.45;56.42
71098;SHT35;58754;47.622;-2.986;2023-04-03T16:06:52;16.47;56.46
71098;SHT35;58754;47.622;-2.986;2023-04-03T16:09:17;16.48;56.47
71098;SHT35;58754;47.622;-2.986;2023-04-03T16:11:43;16.47;56.46
71098;SHT35;58754;47.622;-2.986;2023-04-03T16:14:09;16.48;56.49
71098;SHT35;58754;47.622;-2.986;2023-04-03T16:16:36;16.49;56.47
71098;SHT35;58754;47.622;-2.986;2023-04-03T16:19:02;16.49;56.47
71098;SHT35;58754;47.622;-2.986;2023-04-03T16:21:28;16.48;56.45
71098;SHT35;58754;47.622;-2.986;2023-04-03T16:23:59;16.49;56.45
71098;SHT35;58754;47.622;-2.986;2023-04-03T16:26:25;16.48;56.40
71098;SHT35;58754;47.622;-2.986;2023-04-03T16:28:52;16.48;56.47
71098;SHT35;58754;47.622;-2.986;2023-04-03T16:31:18;16.48;56.46
71098;SHT35;58754;47.622;-2.986;2023-04-03T16:33:44;16.51;56.40
71098;SHT35;58754;47.622;-2.986;2023-04-03T16:36:10;16.48;56.39
71098;SHT35;58754;47.622;-2.986;2023-04-03T16:38:36;16.51;56.43
71098;SHT35;58754;47.622;-2.986;2023-04-03T16:41:01;16.48;56.41
71098;SHT35;58754;47.622;-2.986;2023-04-03T16:43:31;16.51;56.44
71098;SHT35;58754;47.622;-2.986;2023-04-03T16:45:57;16.48;56.44
71098;SHT35;58754;47.622;-2.986;2023-04-03T16:48:23;16.51;56.41
71098;SHT35;58754;47.622;-2.986;2023-04-03T16:50:49;16.51;56.38
71098;SHT35;58754;47.622;-2.986;2023-04-03T16:53:19;16.51;56.37